sim
Sign-in with your pilot id or email,
or register
Callsign
Passwort

Schedule Details

Flight Number: DLH2189
Departure: Hannover Langenhagen Airport (EDDV) at 18:10
Arrival: Munich Airport (EDDM) at 19:20
Route: Lufthansa Passenger Schedule. Enter filed route here before submitting Pirep.

Weather Information
Getting current METAR information for EDDV 221720Z VRB02KT CAVOK 20/11 Q1007 NOSIG
Getting current METAR information for EDDM 221720Z 12002KT 9999 FEW040CB 19/15 Q1010 NOSIG

Schedule Frequency

Route Map